sensor_id;sensor_type;location;lat;lon;timestamp;pressure;altitude;pressure_sealevel;temperature
40047;BMP280;31510;48.122;11.576;2022-11-20T00:00:47;95085.19;;;6.62
40047;BMP280;31510;48.122;11.576;2022-11-20T00:03:12;95088.50;;;6.66
40047;BMP280;31510;48.122;11.576;2022-11-20T00:05:38;95078.63;;;6.66
40047;BMP280;31510;48.122;11.576;2022-11-20T00:08:03;95086.59;;;6.66
40047;BMP280;31510;48.122;11.576;2022-11-20T00:10:29;95085.75;;;6.69
40047;BMP280;31510;48.122;11.576;2022-11-20T00:12:54;95094.44;;;6.70
40047;BMP280;31510;48.122;11.576;2022-11-20T00:15:19;95094.72;;;6.72
40047;BMP280;31510;48.122;11.576;2022-11-20T00:17:44;95085.94;;;6.75
40047;BMP280;31510;48.122;11.576;2022-11-20T00:20:10;95091.34;;;6.71
40047;BMP280;31510;48.122;11.576;2022-11-20T00:22:36;95086.06;;;6.71
40047;BMP280;31510;48.122;11.576;2022-11-20T00:25:01;95086.47;;;6.70
40047;BMP280;31510;48.122;11.576;2022-11-20T00:27:26;95093.25;;;6.71
40047;BMP280;31510;48.122;11.576;2022-11-20T00:29:51;95097.81;;;6.70
40047;BMP280;31510;48.122;11.576;2022-11-20T00:32:17;95095.16;;;6.70
40047;BMP280;31510;48.122;11.576;2022-11-20T00:34:42;95098.13;;;6.72
40047;BMP280;31510;48.122;11.576;2022-11-20T00:37:07;95100.34;;;6.74
40047;BMP280;31510;48.122;11.576;2022-11-20T00:39:33;95097.69;;;6.74
40047;BMP280;31510;48.122;11.576;2022-11-20T00:41:58;95106.06;;;6.72
40047;BMP280;31510;48.122;11.576;2022-11-20T00:44:23;95101.84;;;6.75
40047;BMP280;31510;48.122;11.576;2022-11-20T00:46:48;95101.06;;;6.74
40047;BMP280;31510;48.122;11.576;2022-11-20T00:49:14;95103.41;;;6.72
40047;BMP280;31510;48.122;11.576;2022-11-20T00:51:39;95112.44;;;6.75
40047;BMP280;31510;48.122;11.576;2022-11-20T00:54:04;95109.38;;;6.76
40047;BMP280;31510;48.122;11.576;2022-11-20T00:56:29;95119.63;;;6.74
40047;BMP280;31510;48.122;11.576;2022-11-20T00:58:55;95122.72;;;6.73
40047;BMP280;31510;48.122;11.576;2022-11-20T01:01:25;95119.41;;;6.69
40047;BMP280;31510;48.122;11.576;2022-11-20T01:03:52;95126.31;;;6.66
40047;BMP280;31510;48.122;11.576;2022-11-20T01:06:29;95122.75;;;6.60
40047;BMP280;31510;48.122;11.576;2022-11-20T01:08:57;95119.00;;;6.58
40047;BMP280;31510;48.122;11.576;2022-11-20T01:11:26;95126.97;;;6.58
40047;BMP280;31510;48.122;11.576;2022-11-20T01:13:52;95124.19;;;6.61
40047;BMP280;31510;48.122;11.576;2022-11-20T01:16:26;95122.41;;;6.58
40047;BMP280;31510;48.122;11.576;2022-11-20T01:18:54;95130.78;;;6.57
40047;BMP280;31510;48.122;11.576;2022-11-20T01:21:28;95125.16;;;6.55
40047;BMP280;31510;48.122;11.576;2022-11-20T01:23:54;95132.06;;;6.52
40047;BMP280;31510;48.122;11.576;2022-11-20T01:26:22;95134.28;;;6.54
40047;BMP280;31510;48.122;11.576;2022-11-20T01:28:49;95131.94;;;6.56
40047;BMP280;31510;48.122;11.576;2022-11-20T01:31:21;95131.94;;;6.56
40047;BMP280;31510;48.122;11.576;2022-11-20T01:33:48;95130.34;;;6.58
40047;BMP280;31510;48.122;11.576;2022-11-20T01:36:15;95126.97;;;6.58
40047;BMP280;31510;48.122;11.576;2022-11-20T01:38:41;95135.97;;;6.60
40047;BMP280;31510;48.122;11.576;2022-11-20T01:41:08;95134.06;;;6.61
40047;BMP280;31510;48.122;11.576;2022-11-20T01:43:33;95133.75;;;6.59
40047;BMP280;31510;48.122;11.576;2022-11-20T01:46:13;95138.72;;;6.57
40047;BMP280;31510;48.122;11.576;2022-11-20T01:51:30;95133.97;;;6.64
40047;BMP280;31510;48.122;11.576;2022-11-20T01:54:00;95131.19;;;6.68
40047;BMP280;31510;48.122;11.576;2022-11-20T01:56:26;95136.59;;;6.64
40047;BMP280;31510;48.122;11.576;2022-11-20T01:58:55;95135.53;;;6.62
40047;BMP280;31510;48.122;11.576;2022-11-20T02:01:22;95138.19;;;6.62
40047;BMP280;31510;48.122;11.576;2022-11-20T02:03:48;95140.19;;;6.58
40047;BMP280;31510;48.122;11.576;2022-11-20T02:06:19;95135.00;;;6.54
40047;BMP280;31510;48.122;11.576;2022-11-20T02:08:47;95130.91;;;6.53
40047;BMP280;31510;48.122;11.576;2022-11-20T02:11:13;95135.75;;;6.55
40047;BMP280;31510;48.122;11.576;2022-11-20T02:13:38;95131.09;;;6.59
40047;BMP280;31510;48.122;11.576;2022-11-20T02:18:47;95128.03;;;6.60
40047;BMP280;31510;48.122;11.576;2022-11-20T02:21:19;95130.78;;;6.57
40047;BMP280;31510;48.122;11.576;2022-11-20T02:24:13;95130.44;;;6.55
40047;BMP280;31510;48.122;11.576;2022-11-20T02:26:47;95135.75;;;6.55
40047;BMP280;31510;48.122;11.576;2022-11-20T02:30:01;95133.88;;;6.55
40047;BMP280;31510;48.122;11.576;2022-11-20T02:32:02;95141.03;;;6.55
40047;BMP280;31510;48.122;11.576;2022-11-20T02:34:27;95134.16;;;6.57
40047;BMP280;31510;48.122;11.576;2022-11-20T02:36:54;95137.44;;;6.61
40047;BMP280;31510;48.122;11.576;2022-11-20T02:39:21;95145.72;;;6.63
40047;BMP280;31510;48.122;11.576;2022-11-20T02:41:47;95136.28;;;6.62
40047;BMP280;31510;48.122;11.576;2022-11-20T02:44:12;95140.00;;;6.65
40047;BMP280;31510;48.122;11.576;2022-11-20T02:46:38;95135.97;;;6.60
40047;BMP280;31510;48.122;11.576;2022-11-20T02:49:04;95141.38;;;6.57
40047;BMP280;31510;48.122;11.576;2022-11-20T02:51:30;95130.13;;;6.53
40047;BMP280;31510;48.122;11.576;2022-11-20T02:53:55;95139.06;;;6.59
40047;BMP280;31510;48.122;11.576;2022-11-20T02:56:21;95131.09;;;6.59
40047;BMP280;31510;48.122;11.576;2022-11-20T02:58:46;95134.50;;;6.59
40047;BMP280;31510;48.122;11.576;2022-11-20T03:01:11;95139.06;;;6.59
40047;BMP280;31510;48.122;11.576;2022-11-20T03:03:37;95130.03;;;6.56
40047;BMP280;31510;48.122;11.576;2022-11-20T03:06:02;95133.88;;;6.55
40047;BMP280;31510;48.122;11.576;2022-11-20T03:08:28;95127.06;;;6.54
40047;BMP280;31510;48.122;11.576;2022-11-20T03:10:53;95121.47;;;6.52
40047;BMP280;31510;48.122;11.576;2022-11-20T03:13:18;95125.50;;;6.57
40047;BMP280;31510;48.122;11.576;2022-11-20T03:15:44;95126.13;;;6.61
40047;BMP280;31510;48.122;11.576;2022-11-20T03:18:09;95134.50;;;6.59
40047;BMP280;31510;48.122;11.576;2022-11-20T03:20:34;95127.81;;;6.55
40047;BMP280;31510;48.122;11.576;2022-11-20T03:23:00;95126.88;;;6.49
40047;BMP280;31510;48.122;11.576;2022-11-20T03:25:25;95123.47;;;6.48
40047;BMP280;31510;48.122;11.576;2022-11-20T03:27:51;95132.16;;;6.49
40047;BMP280;31510;48.122;11.576;2022-11-20T03:30:17;95126.13;;;6.48
40047;BMP280;31510;48.122;11.576;2022-11-20T03:32:42;95126.88;;;6.49
40047;BMP280;31510;48.122;11.576;2022-11-20T03:35:08;95131.31;;;6.52
40047;BMP280;31510;48.122;11.576;2022-11-20T03:37:34;95126.75;;;6.52
40047;BMP280;31510;48.122;11.576;2022-11-20T03:39:59;95130.56;;;6.51
40047;BMP280;31510;48.122;11.576;2022-11-20T03:42:24;95122.94;;;6.53
40047;BMP280;31510;48.122;11.576;2022-11-20T03:45:08;95120.31;;;6.53
40047;BMP280;31510;48.122;11.576;2022-11-20T03:47:33;95115.53;;;6.48
40047;BMP280;31510;48.122;11.576;2022-11-20T03:49:59;95119.75;;;6.46
40047;BMP280;31510;48.122;11.576;2022-11-20T03:52:24;95123.69;;;6.41
40047;BMP280;31510;48.122;11.576;2022-11-20T03:54:49;95122.19;;;6.40
40047;BMP280;31510;48.122;11.576;2022-11-20T03:57:14;95121.88;;;6.38
40047;BMP280;31510;48.122;11.576;2022-11-20T03:59:40;95124.53;;;6.38
40047;BMP280;31510;48.122;11.576;2022-11-20T04:02:05;95131.44;;;6.36
40047;BMP280;31510;48.122;11.576;2022-11-20T04:04:30;95134.81;;;6.36
40047;BMP280;31510;48.122;11.576;2022-11-20T04:06:55;95126.88;;;6.36
40047;BMP280;31510;48.122;11.576;2022-11-20T04:09:21;95132.47;;;6.38
40047;BMP280;31510;48.122;11.576;2022-11-20T04:11:46;95128.66;;;6.39
40047;BMP280;31510;48.122;11.576;2022-11-20T04:14:15;95136.19;;;6.41
40047;BMP280;31510;48.122;11.576;2022-11-20T04:16:41;95138.50;;;6.39
40047;BMP280;31510;48.122;11.576;2022-11-20T04:19:13;95141.16;;;6.39
40047;BMP280;31510;48.122;11.576;2022-11-20T04:21:38;95135.84;;;6.39
40047;BMP280;31510;48.122;11.576;2022-11-20T04:24:04;95132.78;;;6.40
40047;BMP280;31510;48.122;11.576;2022-11-20T04:26:30;95132.78;;;6.40
40047;BMP280;31510;48.122;11.576;2022-11-20T04:28:56;95130.13;;;6.40
40047;BMP280;31510;48.122;11.576;2022-11-20T04:31:27;95127.50;;;6.40
40047;BMP280;31510;48.122;11.576;2022-11-20T04:33:53;95130.47;;;6.42
40047;BMP280;31510;48.122;11.576;2022-11-20T04:36:23;95130.91;;;6.41
40047;BMP280;31510;48.122;11.576;2022-11-20T04:38:53;95125.59;;;6.41
40047;BMP280;31510;48.122;11.576;2022-11-20T04:41:20;95138.84;;;6.41
40047;BMP280;31510;48.122;11.576;2022-11-20T04:43:47;95138.84;;;6.41
40047;BMP280;31510;48.122;11.576;2022-11-20T04:46:13;95132.16;;;6.36
40047;BMP280;31510;48.122;11.576;2022-11-20T04:48:39;95133.22;;;6.39
40047;BMP280;31510;48.122;11.576;2022-11-20T04:51:04;95134.69;;;6.40
40047;BMP280;31510;48.122;11.576;2022-11-20T04:53:30;95139.69;;;6.38
40047;BMP280;31510;48.122;11.576;2022-11-20T04:56:06;95136.31;;;6.37
40047;BMP280;31510;48.122;11.576;2022-11-20T04:58:33;95137.78;;;6.38
40047;BMP280;31510;48.122;11.576;2022-11-20T05:01:20;95142.66;;;6.40
40047;BMP280;31510;48.122;11.576;2022-11-20T05:03:46;95130.03;;;6.44
40047;BMP280;31510;48.122;11.576;2022-11-20T05:06:13;95136.41;;;6.46
40047;BMP280;31510;48.122;11.576;2022-11-20T05:08:39;95137.03;;;6.50
40047;BMP280;31510;48.122;11.576;2022-11-20T05:11:08;95137.78;;;6.51
40047;BMP280;31510;48.122;11.576;2022-11-20T05:13:34;95136.72;;;6.48
40047;BMP280;31510;48.122;11.576;2022-11-20T05:16:04;95134.59;;;6.43
40047;BMP280;31510;48.122;11.576;2022-11-20T05:18:29;95128.66;;;6.39
40047;BMP280;31510;48.122;11.576;2022-11-20T05:20:56;95129.50;;;6.36
40047;BMP280;31510;48.122;11.576;2022-11-20T05:23:21;95134.81;;;6.36
40047;BMP280;31510;48.122;11.576;2022-11-20T05:25:46;95136.72;;;6.36
40047;BMP280;31510;48.122;11.576;2022-11-20T05:28:12;95136.41;;;6.34
40047;BMP280;31510;48.122;11.576;2022-11-20T05:30:37;95133.75;;;6.34
40047;BMP280;31510;48.122;11.576;2022-11-20T05:33:02;95133.31;;;6.35
40047;BMP280;31510;48.122;11.576;2022-11-20T05:35:28;95126.13;;;6.36
40047;BMP280;31510;48.122;11.576;2022-11-20T05:37:53;95133.66;;;6.37
40047;BMP280;31510;48.122;11.576;2022-11-20T05:40:18;95127.50;;;6.40
40047;BMP280;31510;48.122;11.576;2022-11-20T05:42:44;95131.31;;;6.39
40047;BMP280;31510;48.122;11.576;2022-11-20T05:45:09;95135.53;;;6.37
40047;BMP280;31510;48.122;11.576;2022-11-20T05:47:34;95142.34;;;6.38
40047;BMP280;31510;48.122;11.576;2022-11-20T05:50:00;95141.16;;;6.39
40047;BMP280;31510;48.122;11.576;2022-11-20T05:52:29;95135.53;;;6.37
40047;BMP280;31510;48.122;11.576;2022-11-20T05:54:54;95143.16;;;6.35
40047;BMP280;31510;48.122;11.576;2022-11-20T05:57:20;95142.75;;;6.36
40047;BMP280;31510;48.122;11.576;2022-11-20T05:59:45;95139.38;;;6.36
40047;BMP280;31510;48.122;11.576;2022-11-20T06:02:10;95143.16;;;6.35
40047;BMP280;31510;48.122;11.576;2022-11-20T06:04:36;95139.78;;;6.35
40047;BMP280;31510;48.122;11.576;2022-11-20T06:07:01;95153.44;;;6.33
40047;BMP280;31510;48.122;11.576;2022-11-20T06:09:26;95152.72;;;6.33
40047;BMP280;31510;48.122;11.576;2022-11-20T06:11:52;95142.66;;;6.28
40047;BMP280;31510;48.122;11.576;2022-11-20T06:14:17;95144.25;;;6.25
40047;BMP280;31510;48.122;11.576;2022-11-20T06:16:42;95151.84;;;6.23
40047;BMP280;31510;48.122;11.576;2022-11-20T06:19:07;95148.03;;;6.24
40047;BMP280;31510;48.122;11.576;2022-11-20T06:21:33;95151.84;;;6.23
40047;BMP280;31510;48.122;11.576;2022-11-20T06:23:58;95151.84;;;6.23
40047;BMP280;31510;48.122;11.576;2022-11-20T06:26:25;95144.75;;;6.20
40047;BMP280;31510;48.122;11.576;2022-11-20T06:28:51;95148.66;;;6.16
40047;BMP280;31510;48.122;11.576;2022-11-20T06:31:19;95143.47;;;6.12
40047;BMP280;31510;48.122;11.576;2022-11-20T06:33:44;95145.06;;;6.10
40047;BMP280;31510;48.122;11.576;2022-11-20T06:36:12;95148.84;;;6.09
40047;BMP280;31510;48.122;11.576;2022-11-20T06:38:39;95153.41;;;6.08
40047;BMP280;31510;48.122;11.576;2022-11-20T06:41:11;95157.56;;;6.09
40047;BMP280;31510;48.122;11.576;2022-11-20T06:43:37;95155.34;;;6.08
40047;BMP280;31510;48.122;11.576;2022-11-20T06:46:03;95162.19;;;6.05
40047;BMP280;31510;48.122;11.576;2022-11-20T06:48:29;95163.06;;;6.02
40047;BMP280;31510;48.122;11.576;2022-11-20T06:50:55;95171.41;;;6.01
40047;BMP280;31510;48.122;11.576;2022-11-20T06:53:21;95172.56;;;6.00
40047;BMP280;31510;48.122;11.576;2022-11-20T06:55:49;95174.06;;;6.01
40047;BMP280;31510;48.122;11.576;2022-11-20T06:58:15;95175.09;;;6.03
40047;BMP280;31510;48.122;11.576;2022-11-20T07:00:41;95184.22;;;6.02
40047;BMP280;31510;48.122;11.576;2022-11-20T07:03:08;95179.66;;;6.03
40047;BMP280;31510;48.122;11.576;2022-11-20T07:05:34;95187.50;;;6.06
40047;BMP280;31510;48.122;11.576;2022-11-20T07:07:59;95168.66;;;6.04
40047;BMP280;31510;48.122;11.576;2022-11-20T07:10:25;95180.72;;;6.05
40047;BMP280;31510;48.122;11.576;2022-11-20T07:12:52;95181.13;;;6.04
40047;BMP280;31510;48.122;11.576;2022-11-20T07:15:18;95184.22;;;6.02
40047;BMP280;31510;48.122;11.576;2022-11-20T07:17:44;95183.03;;;6.03
40047;BMP280;31510;48.122;11.576;2022-11-20T07:20:09;95182.63;;;6.05
40047;BMP280;31510;48.122;11.576;2022-11-20T07:22:35;95180.72;;;6.05
40047;BMP280;31510;48.122;11.576;2022-11-20T07:25:01;95185.09;;;6.12
40047;BMP280;31510;48.122;11.576;2022-11-20T07:27:27;95194.63;;;6.09
40047;BMP280;31510;48.122;11.576;2022-11-20T07:29:52;95193.13;;;6.08
40047;BMP280;31510;48.122;11.576;2022-11-20T07:32:17;95190.78;;;6.10
40047;BMP280;31510;48.122;11.576;2022-11-20T07:34:43;95196.81;;;6.11
40047;BMP280;31510;48.122;11.576;2022-11-20T07:37:08;95199.47;;;6.11
40047;BMP280;31510;48.122;11.576;2022-11-20T07:39:33;95182.44;;;6.12
40047;BMP280;31510;48.122;11.576;2022-11-20T07:41:59;95189.22;;;6.13
40047;BMP280;31510;48.122;11.576;2022-11-20T07:44:24;95181.59;;;6.15
40047;BMP280;31510;48.122;11.576;2022-11-20T07:46:49;95192.50;;;6.17
40047;BMP280;31510;48.122;11.576;2022-11-20T07:49:14;95194.44;;;6.16
40047;BMP280;31510;48.122;11.576;2022-11-20T07:51:39;95195.06;;;6.20
40047;BMP280;31510;48.122;11.576;2022-11-20T07:54:05;95193.88;;;6.21
40047;BMP280;31510;48.122;11.576;2022-11-20T07:56:30;95193.56;;;6.19
40047;BMP280;31510;48.122;11.576;2022-11-20T07:58:55;95199.16;;;6.21
40047;BMP280;31510;48.122;11.576;2022-11-20T08:01:21;95196.84;;;6.23
40047;BMP280;31510;48.122;11.576;2022-11-20T08:03:46;95192.63;;;6.26
40047;BMP280;31510;48.122;11.576;2022-11-20T08:06:11;95204.59;;;6.30
40047;BMP280;31510;48.122;11.576;2022-11-20T08:08:37;95196.66;;;6.30
40047;BMP280;31510;48.122;11.576;2022-11-20T08:11:04;95190.94;;;6.32
40047;BMP280;31510;48.122;11.576;2022-11-20T08:13:48;95193.56;;;6.32
40047;BMP280;31510;48.122;11.576;2022-11-20T08:16:32;95193.16;;;6.33
40047;BMP280;31510;48.122;11.576;2022-11-20T08:18:58;95191.56;;;6.35
40047;BMP280;31510;48.122;11.576;2022-11-20T08:21:23;95200.59;;;6.38
40047;BMP280;31510;48.122;11.576;2022-11-20T08:23:49;95188.28;;;6.44
40047;BMP280;31510;48.122;11.576;2022-11-20T08:26:14;95199.22;;;6.46
40047;BMP280;31510;48.122;11.576;2022-11-20T08:28:39;95198.78;;;6.47
40047;BMP280;31510;48.122;11.576;2022-11-20T08:31:05;95206.53;;;6.54
40047;BMP280;31510;48.122;11.576;2022-11-20T08:33:30;95205.38;;;6.55
40047;BMP280;31510;48.122;11.576;2022-11-20T08:36:02;95207.59;;;6.57
40047;BMP280;31510;48.122;11.576;2022-11-20T08:38:28;95197.00;;;6.57
40047;BMP280;31510;48.122;11.576;2022-11-20T08:41:02;95208.22;;;6.61
40047;BMP280;31510;48.122;11.576;2022-11-20T08:43:47;95205.91;;;6.63
40047;BMP280;31510;48.122;11.576;2022-11-20T08:46:13;95203.16;;;6.66
40047;BMP280;31510;48.122;11.576;2022-11-20T08:48:38;95202.72;;;6.68
40047;BMP280;31510;48.122;11.576;2022-11-20T08:51:04;95197.31;;;6.71
40047;BMP280;31510;48.122;11.576;2022-11-20T08:53:29;95195.00;;;6.73
40047;BMP280;31510;48.122;11.576;2022-11-20T08:55:56;95191.50;;;6.76
40047;BMP280;31510;48.122;11.576;2022-11-20T08:58:22;95200.81;;;6.80
40047;BMP280;31510;48.122;11.576;2022-11-20T09:00:47;95198.47;;;6.82
40047;BMP280;31510;48.122;11.576;2022-11-20T09:03:12;95193.91;;;6.83
40047;BMP280;31510;48.122;11.576;2022-11-20T09:05:38;95191.16;;;6.86
40047;BMP280;31510;48.122;11.576;2022-11-20T09:08:04;95202.81;;;6.89
40047;BMP280;31510;48.122;11.576;2022-11-20T09:10:29;95192.53;;;6.91
40047;BMP280;31510;48.122;11.576;2022-11-20T09:12:54;95187.44;;;6.96
40047;BMP280;31510;48.122;11.576;2022-11-20T09:15:20;95185.09;;;6.98
40047;BMP280;31510;48.122;11.576;2022-11-20T09:17:56;95199.09;;;6.99
40047;BMP280;31510;48.122;11.576;2022-11-20T09:20:23;95197.09;;;7.03
40047;BMP280;31510;48.122;11.576;2022-11-20T09:22:48;95192.84;;;7.05
40047;BMP280;31510;48.122;11.576;2022-11-20T09:25:14;95187.44;;;7.09
40047;BMP280;31510;48.122;11.576;2022-11-20T09:27:39;95189.66;;;7.10
40047;BMP280;31510;48.122;11.576;2022-11-20T09:30:07;95189.22;;;7.12
40047;BMP280;31510;48.122;11.576;2022-11-20T09:32:32;95192.63;;;7.12
40047;BMP280;31510;48.122;11.576;2022-11-20T09:34:58;95189.84;;;7.15
40047;BMP280;31510;48.122;11.576;2022-11-20T09:37:23;95184.44;;;7.19
40047;BMP280;31510;48.122;11.576;2022-11-20T09:39:48;95174.88;;;7.21
40047;BMP280;31510;48.122;11.576;2022-11-20T09:42:35;95178.59;;;7.24
40047;BMP280;31510;48.122;11.576;2022-11-20T09:51:02;95171.47;;;7.33
40047;BMP280;31510;48.122;11.576;2022-11-20T09:56:16;95162.53;;;7.40
40047;BMP280;31510;48.122;11.576;2022-11-20T09:58:45;95161.34;;;7.41
40047;BMP280;31510;48.122;11.576;2022-11-20T10:01:15;95164.66;;;7.45
40047;BMP280;31510;48.122;11.576;2022-11-20T10:06:14;95148.25;;;7.58
40047;BMP280;31510;48.122;11.576;2022-11-20T10:14:59;95140.34;;;7.89
40047;BMP280;31510;48.122;11.576;2022-11-20T10:23:06;95135.16;;;8.06
40047;BMP280;31510;48.122;11.576;2022-11-20T10:25:38;95152.03;;;8.12
40047;BMP280;31510;48.122;11.576;2022-11-20T10:28:20;95149.66;;;8.14
40047;BMP280;31510;48.122;11.576;2022-11-20T10:30:56;95135.81;;;8.19
40047;BMP280;31510;48.122;11.576;2022-11-20T10:33:23;95144.41;;;8.23
40047;BMP280;31510;48.122;11.576;2022-11-20T10:38:37;95155.28;;;8.37
40047;BMP280;31510;48.122;11.576;2022-11-20T10:41:05;95151.00;;;8.40
40047;BMP280;31510;48.122;11.576;2022-11-20T10:43:54;95153.34;;;8.38
40047;BMP280;31510;48.122;11.576;2022-11-20T10:46:25;95154.38;;;8.40
40047;BMP280;31510;48.122;11.576;2022-11-20T10:48:50;95144.19;;;8.39
40047;BMP280;31510;48.122;11.576;2022-11-20T10:51:40;95151.72;;;8.40
40047;BMP280;31510;48.122;11.576;2022-11-20T11:00:07;95144.69;;;8.46
40047;BMP280;31510;48.122;11.576;2022-11-20T11:05:17;95128.41;;;8.44
40047;BMP280;31510;48.122;11.576;2022-11-20T11:07:48;95127.25;;;8.45
40047;BMP280;31510;48.122;11.576;2022-11-20T11:10:37;95143.31;;;8.42
40047;BMP280;31510;48.122;11.576;2022-11-20T11:13:06;95124.84;;;8.38
40047;BMP280;31510;48.122;11.576;2022-11-20T11:15:40;95132.53;;;8.36
40047;BMP280;31510;48.122;11.576;2022-11-20T11:18:10;95125.28;;;8.37
40047;BMP280;31510;48.122;11.576;2022-11-20T11:20:35;95119.97;;;8.37
40047;BMP280;31510;48.122;11.576;2022-11-20T11:23:01;95124.69;;;8.33
40047;BMP280;31510;48.122;11.576;2022-11-20T11:25:35;95121.31;;;8.33
40047;BMP280;31510;48.122;11.576;2022-11-20T11:30:41;95127.22;;;8.36
40047;BMP280;31510;48.122;11.576;2022-11-20T11:33:19;95125.16;;;8.40
40047;BMP280;31510;48.122;11.576;2022-11-20T11:35:49;95114.09;;;8.42
40047;BMP280;31510;48.122;11.576;2022-11-20T11:38:22;95125.75;;;8.44
40047;BMP280;31510;48.122;11.576;2022-11-20T11:40:53;95106.72;;;8.46
40047;BMP280;31510;48.122;11.576;2022-11-20T11:43:28;95108.22;;;8.47
40047;BMP280;31510;48.122;11.576;2022-11-20T11:46:34;95111.00;;;8.43
40047;BMP280;31510;48.122;11.576;2022-11-20T11:54:37;95106.59;;;8.49
40047;BMP280;31510;48.122;11.576;2022-11-20T11:57:47;95099.53;;;8.55
40047;BMP280;31510;48.122;11.576;2022-11-20T12:00:22;95106.91;;;8.60
40047;BMP280;31510;48.122;11.576;2022-11-20T12:07:49;95116.53;;;8.58
40047;BMP280;31510;48.122;11.576;2022-11-20T12:13:45;95120.78;;;8.46
40047;BMP280;31510;48.122;11.576;2022-11-20T12:16:15;95127.22;;;8.36
40047;BMP280;31510;48.122;11.576;2022-11-20T12:18:42;95125.25;;;8.28
40047;BMP280;31510;48.122;11.576;2022-11-20T12:31:46;95112.31;;;7.88
40047;BMP280;31510;48.122;11.576;2022-11-20T12:40:28;95109.94;;;7.59
40047;BMP280;31510;48.122;11.576;2022-11-20T12:43:15;95106.97;;;7.57
40047;BMP280;31510;48.122;11.576;2022-11-20T12:46:27;95115.78;;;7.54
40047;BMP280;31510;48.122;11.576;2022-11-20T12:49:20;95100.28;;;7.53
40047;BMP280;31510;48.122;11.576;2022-11-20T12:52:01;95109.88;;;7.51
40047;BMP280;31510;48.122;11.576;2022-11-20T12:54:38;95106.91;;;7.49
40047;BMP280;31510;48.122;11.576;2022-11-20T13:07:53;95103.44;;;7.39
40047;BMP280;31510;48.122;11.576;2022-11-20T13:10:35;95107.88;;;7.42
40047;BMP280;31510;48.122;11.576;2022-11-20T13:18:27;95101.00;;;7.45
40047;BMP280;31510;48.122;11.576;2022-11-20T13:20:53;95106.72;;;7.43
40047;BMP280;31510;48.122;11.576;2022-11-20T13:23:27;95099.50;;;7.44
40047;BMP280;31510;48.122;11.576;2022-11-20T13:26:14;95103.34;;;7.43
40047;BMP280;31510;48.122;11.576;2022-11-20T13:28:40;95098.16;;;7.39
40047;BMP280;31510;48.122;11.576;2022-11-20T13:31:25;95090.84;;;7.31
40047;BMP280;31510;48.122;11.576;2022-11-20T13:33:55;95092.44;;;7.28
40047;BMP280;31510;48.122;11.576;2022-11-20T13:36:24;95090.25;;;7.27
40047;BMP280;31510;48.122;11.576;2022-11-20T13:38:52;95086.53;;;7.24
40047;BMP280;31510;48.122;11.576;2022-11-20T13:44:04;95078.69;;;7.21
40047;BMP280;31510;48.122;11.576;2022-11-20T13:46:39;95071.47;;;7.21
40047;BMP280;31510;48.122;11.576;2022-11-20T13:49:16;95074.13;;;7.21
40047;BMP280;31510;48.122;11.576;2022-11-20T13:51:51;95075.19;;;7.24
40047;BMP280;31510;48.122;11.576;2022-11-20T14:00:11;95077.00;;;7.27
40047;BMP280;31510;48.122;11.576;2022-11-20T14:02:36;95072.28;;;7.31
40047;BMP280;31510;48.122;11.576;2022-11-20T14:05:03;95075.56;;;7.35
40047;BMP280;31510;48.122;11.576;2022-11-20T14:07:41;95082.91;;;7.31
40047;BMP280;31510;48.122;11.576;2022-11-20T14:10:23;95083.34;;;7.29
40047;BMP280;31510;48.122;11.576;2022-11-20T14:12:49;95072.91;;;7.35
40047;BMP280;31510;48.122;11.576;2022-11-20T14:15:33;95074.06;;;7.34
40047;BMP280;31510;48.122;11.576;2022-11-20T14:17:59;95084.13;;;7.39
40047;BMP280;31510;48.122;11.576;2022-11-20T14:20:37;95073.09;;;7.40
40047;BMP280;31510;48.122;11.576;2022-11-20T14:23:03;95074.47;;;7.45
40047;BMP280;31510;48.122;11.576;2022-11-20T14:25:30;95072.25;;;7.43
40047;BMP280;31510;48.122;11.576;2022-11-20T14:27:59;95080.50;;;7.45
40047;BMP280;31510;48.122;11.576;2022-11-20T14:30:29;95078.16;;;7.47
40047;BMP280;31510;48.122;11.576;2022-11-20T14:33:02;95073.28;;;7.46
40047;BMP280;31510;48.122;11.576;2022-11-20T14:35:34;95077.72;;;7.49
40047;BMP280;31510;48.122;11.576;2022-11-20T14:38:01;95077.00;;;7.48
40047;BMP280;31510;48.122;11.576;2022-11-20T14:40:32;95069.03;;;7.48
40047;BMP280;31510;48.122;11.576;2022-11-20T14:43:00;95068.28;;;7.48
40047;BMP280;31510;48.122;11.576;2022-11-20T14:45:26;95079.66;;;7.48
40047;BMP280;31510;48.122;11.576;2022-11-20T14:47:56;95071.81;;;7.45
40047;BMP280;31510;48.122;11.576;2022-11-20T14:50:23;95078.59;;;7.46
40047;BMP280;31510;48.122;11.576;2022-11-20T14:52:57;95073.69;;;7.44
40047;BMP280;31510;48.122;11.576;2022-11-20T14:57:58;95080.75;;;7.38
40047;BMP280;31510;48.122;11.576;2022-11-20T15:00:24;95072.19;;;7.34
40047;BMP280;31510;48.122;11.576;2022-11-20T15:02:50;95073.34;;;7.33
40047;BMP280;31510;48.122;11.576;2022-11-20T15:05:18;95085.44;;;7.34
40047;BMP280;31510;48.122;11.576;2022-11-20T15:07:46;95074.94;;;7.31
40047;BMP280;31510;48.122;11.576;2022-11-20T15:10:20;95085.97;;;7.29
40047;BMP280;31510;48.122;11.576;2022-11-20T15:12:50;95085.56;;;7.31
40047;BMP280;31510;48.122;11.576;2022-11-20T15:15:21;95080.25;;;7.31
40047;BMP280;31510;48.122;11.576;2022-11-20T15:17:47;95083.34;;;7.29
40047;BMP280;31510;48.122;11.576;2022-11-20T15:20:14;95080.38;;;7.27
40047;BMP280;31510;48.122;11.576;2022-11-20T15:22:40;95073.88;;;7.28
40047;BMP280;31510;48.122;11.576;2022-11-20T15:25:14;95073.16;;;7.28
40047;BMP280;31510;48.122;11.576;2022-11-20T15:27:41;95083.75;;;7.28
40047;BMP280;31510;48.122;11.576;2022-11-20T15:30:15;95079.31;;;7.25
40047;BMP280;31510;48.122;11.576;2022-11-20T15:32:41;95081.97;;;7.25
40047;BMP280;31510;48.122;11.576;2022-11-20T15:35:07;95082.28;;;7.27
40047;BMP280;31510;48.122;11.576;2022-11-20T15:37:33;95082.41;;;7.23
40047;BMP280;31510;48.122;11.576;2022-11-20T15:39:58;95071.59;;;7.18
40047;BMP280;31510;48.122;11.576;2022-11-20T15:42:23;95071.84;;;7.11
40047;BMP280;31510;48.122;11.576;2022-11-20T15:44:48;95060.59;;;7.07
40047;BMP280;31510;48.122;11.576;2022-11-20T15:47:14;95067.22;;;7.03
40047;BMP280;31510;48.122;11.576;2022-11-20T15:49:39;95065.41;;;7.00
40047;BMP280;31510;48.122;11.576;2022-11-20T15:52:04;95068.19;;;6.96
40047;BMP280;31510;48.122;11.576;2022-11-20T15:54:29;95070.09;;;6.96
40047;BMP280;31510;48.122;11.576;2022-11-20T15:56:55;95068.91;;;6.97